createdAt,value
2022-08-05T00:00:18.449Z,15.73
2022-08-05T00:02:50.610Z,9.20
2022-08-05T00:05:27.227Z,13.77
2022-08-05T00:08:06.340Z,13.30
2022-08-05T00:10:52.751Z,5.93
2022-08-05T00:13:19.873Z,7.00
2022-08-05T00:15:55.070Z,3.23
2022-08-05T00:18:24.214Z,7.25
2022-08-05T00:20:51.510Z,7.40
2022-08-05T00:23:45.541Z,12.07
2022-08-05T00:26:06.257Z,7.38
2022-08-05T00:28:33.131Z,9.68
2022-08-05T00:31:02.849Z,7.72
2022-08-05T00:34:53.629Z,6.57
2022-08-05T00:37:12.677Z,8.30
2022-08-05T00:39:13.506Z,4.65
2022-08-05T00:41:51.763Z,11.02
2022-08-05T00:44:30.946Z,6.35
2022-08-05T00:47:04.165Z,8.55
2022-08-05T00:49:44.699Z,12.55
2022-08-05T00:52:28.717Z,5.60
2022-08-05T00:54:56.279Z,4.53
2022-08-05T00:57:25.431Z,5.90
2022-08-05T00:59:58.708Z,1.42
2022-08-05T01:02:25.662Z,1.02
2022-08-05T01:04:52.422Z,2.57
2022-08-05T01:07:19.199Z,6.77
2022-08-05T01:09:46.207Z,2.80
2022-08-05T01:12:24.969Z,4.37
2022-08-05T01:15:04.133Z,2.30
2022-08-05T01:17:43.859Z,2.83
2022-08-05T01:20:29.549Z,3.00
2022-08-05T01:23:23.729Z,10.18
2022-08-05T01:25:58.290Z,8.07
2022-08-05T01:28:36.484Z,6.47
2022-08-05T01:31:17.398Z,4.85
2022-08-05T01:33:54.339Z,11.75
2022-08-05T01:36:28.228Z,2.53
2022-08-05T01:38:56.785Z,3.88
2022-08-05T01:41:31.043Z,3.72
2022-08-05T01:44:02.053Z,2.55
2022-08-05T01:46:42.962Z,3.17
2022-08-05T01:49:23.631Z,3.08
2022-08-05T01:51:55.964Z,4.20
2022-08-05T01:54:27.343Z,9.63
2022-08-05T01:58:09.365Z,13.20
2022-08-05T01:59:48.250Z,6.40
2022-08-05T02:02:17.633Z,5.40
2022-08-05T02:04:46.121Z,9.60
2022-08-05T02:07:21.973Z,4.82
2022-08-05T02:09:51.010Z,7.32
2022-08-05T02:12:37.060Z,5.87
2022-08-05T02:15:15.620Z,6.22
2022-08-05T02:18:31.092Z,7.30
2022-08-05T02:20:54.045Z,6.82
2022-08-05T02:23:33.604Z,8.48
2022-08-05T02:26:06.362Z,14.13
2022-08-05T02:28:41.781Z,14.07
2022-08-05T02:31:22.679Z,10.55
2022-08-05T02:33:58.058Z,12.00
2022-08-05T02:36:31.487Z,10.60
2022-08-05T02:39:00.491Z,4.70
2022-08-05T02:41:43.011Z,20.05
2022-08-05T02:44:16.863Z,8.00
2022-08-05T02:46:58.350Z,11.95
2022-08-05T02:49:37.079Z,14.25
2022-08-05T02:52:11.540Z,9.88
2022-08-05T02:54:50.575Z,10.77
2022-08-05T02:58:11.989Z,13.88
2022-08-05T03:00:08.291Z,11.55
2022-08-05T03:02:39.235Z,18.92
2022-08-05T03:05:09.195Z,16.50
2022-08-05T03:08:01.853Z,16.52
2022-08-05T03:10:25.694Z,11.77
2022-08-05T03:15:23.627Z,13.15
2022-08-05T03:17:54.002Z,10.35
2022-08-05T03:20:23.667Z,10.57
2022-08-05T03:22:52.266Z,9.20
2022-08-05T03:25:33.847Z,6.43
2022-08-05T03:28:09.082Z,5.95
2022-08-05T03:30:38.292Z,12.02
2022-08-05T03:33:08.242Z,7.70
2022-08-05T03:35:40.560Z,11.35
2022-08-05T03:38:11.135Z,11.55
2022-08-05T03:40:45.434Z,9.95
2022-08-05T03:43:58.928Z,15.80
2022-08-05T03:46:02.275Z,20.67
2022-08-05T03:48:30.140Z,13.35
2022-08-05T03:52:37.091Z,12.70
2022-08-05T03:55:51.581Z,25.08
2022-08-05T03:56:58.939Z,13.13
2022-08-05T03:59:46.739Z,25.48
2022-08-05T04:02:37.648Z,16.13
2022-08-05T04:05:09.646Z,26.42
2022-08-05T04:07:53.063Z,15.27
2022-08-05T04:10:27.845Z,16.95
2022-08-05T04:12:56.315Z,22.33
2022-08-05T04:15:27.839Z,20.05
2022-08-05T04:18:07.266Z,18.97
2022-08-05T04:20:36.539Z,26.98
2022-08-05T04:23:03.658Z,9.25
2022-08-05T04:25:57.057Z,24.27
2022-08-05T04:28:18.524Z,24.65
2022-08-05T04:30:45.959Z,22.23
2022-08-05T04:33:13.860Z,16.88
2022-08-05T04:36:15.691Z,25.77
2022-08-05T04:38:39.667Z,11.40
2022-08-05T04:41:09.558Z,20.88
2022-08-05T04:43:38.002Z,8.95
2022-08-05T04:46:13.353Z,28.13
2022-08-05T04:48:40.161Z,20.60
2022-08-05T04:51:10.990Z,15.18
2022-08-05T04:53:39.402Z,27.13
2022-08-05T04:56:32.470Z,18.67
2022-08-05T04:58:54.734Z,19.17
2022-08-05T05:01:21.527Z,22.90
2022-08-05T05:04:08.336Z,13.57
2022-08-05T05:06:40.163Z,17.20
2022-08-05T05:09:14.296Z,13.82
2022-08-05T05:11:54.053Z,18.42
2022-08-05T05:14:27.877Z,18.38
2022-08-05T05:17:00.434Z,29.10
2022-08-05T05:19:36.760Z,16.75
2022-08-05T05:22:24.551Z,11.20
2022-08-05T05:24:56.972Z,7.20
2022-08-05T05:27:41.791Z,7.15
2022-08-05T05:30:28.847Z,8.88
2022-08-05T05:33:00.791Z,16.77
2022-08-05T05:35:34.406Z,14.98
2022-08-05T05:38:09.381Z,15.93
2022-08-05T05:40:49.821Z,15.68
2022-08-05T05:43:28.078Z,15.35
2022-08-05T05:46:13.651Z,23.35
2022-08-05T05:48:43.909Z,10.23
2022-08-05T05:51:15.106Z,13.93
2022-08-05T05:53:57.381Z,22.52
2022-08-05T05:56:32.453Z,16.60
2022-08-05T05:59:06.442Z,21.83
2022-08-05T06:01:37.715Z,15.13
2022-08-05T06:04:14.526Z,13.00
2022-08-05T06:06:47.698Z,14.98
2022-08-05T06:09:25.596Z,23.27
2022-08-05T06:12:01.474Z,14.73
2022-08-05T06:14:34.855Z,20.15
2022-08-05T06:17:24.296Z,15.07
2022-08-05T06:19:57.220Z,24.90
2022-08-05T06:22:30.044Z,15.63
2022-08-05T06:24:58.054Z,14.27
2022-08-05T06:28:09.029Z,16.35
2022-08-05T06:30:18.105Z,21.95
2022-08-05T06:32:47.092Z,11.50
2022-08-05T06:35:15.268Z,25.45
2022-08-05T06:37:57.915Z,18.38
2022-08-05T06:40:27.851Z,15.40
2022-08-05T06:42:55.015Z,14.73
2022-08-05T06:45:44.614Z,18.80
2022-08-05T06:48:46.945Z,21.58
2022-08-05T06:50:57.027Z,30.15
2022-08-05T06:53:28.663Z,25.47
2022-08-05T06:55:58.596Z,33.97
2022-08-05T06:58:36.264Z,30.05
2022-08-05T07:01:06.027Z,32.63
2022-08-05T07:03:34.021Z,21.95
2022-08-05T07:06:05.799Z,34.92
2022-08-05T07:08:42.801Z,32.42
2022-08-05T07:11:15.108Z,27.40
2022-08-05T07:14:01.987Z,32.80
2022-08-05T07:17:58.837Z,21.73
2022-08-05T07:22:29.011Z,25.10
2022-08-05T07:25:23.376Z,13.35
2022-08-05T07:27:58.099Z,16.10
2022-08-05T07:30:34.502Z,21.27
2022-08-05T07:33:09.240Z,21.43
2022-08-05T07:36:03.318Z,25.10
2022-08-05T07:38:33.185Z,39.75
2022-08-05T07:42:07.480Z,26.05
2022-08-05T07:43:58.036Z,28.73
2022-08-05T07:46:26.707Z,35.72
2022-08-05T07:49:02.459Z,49.92
2022-08-05T07:51:48.726Z,41.58
2022-08-05T07:54:21.981Z,50.50
2022-08-05T07:57:02.672Z,40.87
2022-08-05T07:59:40.491Z,52.85
2022-08-05T08:02:16.771Z,45.67
2022-08-05T08:04:48.905Z,20.10
2022-08-05T08:07:17.992Z,23.73
2022-08-05T08:09:45.878Z,27.25
2022-08-05T08:12:36.824Z,22.90
2022-08-05T08:15:04.300Z,33.70
2022-08-05T08:17:32.324Z,44.45
2022-08-05T08:20:22.840Z,32.70
2022-08-05T08:22:55.822Z,31.27
2022-08-05T08:25:26.573Z,30.10
2022-08-05T08:28:18.346Z,29.65
2022-08-05T08:30:57.867Z,31.75
2022-08-05T08:33:24.762Z,30.07
2022-08-05T08:36:12.797Z,26.33
2022-08-05T08:38:40.899Z,28.73
2022-08-05T08:41:13.978Z,41.95
2022-08-05T08:45:23.002Z,16.97
2022-08-05T08:46:31.996Z,36.78
2022-08-05T08:49:17.300Z,19.75
2022-08-05T08:52:02.874Z,38.03
2022-08-05T08:54:32.546Z,28.30
2022-08-05T08:56:59.972Z,36.20
2022-08-05T08:59:27.640Z,33.57
2022-08-05T09:02:02.991Z,31.15
2022-08-05T09:04:58.401Z,38.78
2022-08-05T09:07:28.910Z,27.60
2022-08-05T09:09:56.396Z,8.80
2022-08-05T09:12:27.214Z,13.93
2022-08-05T09:15:03.950Z,23.98
2022-08-05T09:17:42.410Z,28.65
2022-08-05T09:20:20.829Z,23.33
2022-08-05T09:23:07.849Z,40.72
2022-08-05T09:26:03.325Z,26.97
2022-08-05T09:28:31.444Z,22.90
2022-08-05T09:31:22.808Z,27.85
2022-08-05T09:33:59.666Z,41.70
2022-08-05T09:36:53.979Z,38.22
2022-08-05T09:39:41.550Z,27.95
2022-08-05T09:42:17.631Z,28.00
2022-08-05T09:44:52.116Z,25.50
2022-08-05T09:47:21.447Z,35.67
2022-08-05T09:50:02.507Z,39.17
2022-08-05T09:52:34.914Z,52.53
2022-08-05T09:55:58.551Z,34.28
2022-08-05T09:57:59.707Z,43.42
2022-08-05T10:00:27.767Z,38.95
2022-08-05T10:02:58.366Z,46.65
2022-08-05T10:05:28.153Z,50.83
2022-08-05T10:08:34.999Z,40.88
2022-08-05T10:10:44.541Z,41.97
2022-08-05T10:13:14.576Z,38.30
2022-08-05T10:15:41.979Z,44.72
2022-08-05T10:18:13.448Z,46.67
2022-08-05T10:21:11.703Z,27.95
2022-08-05T10:23:59.220Z,37.67
2022-08-05T10:26:32.637Z,47.85
2022-08-05T10:29:00.979Z,49.63
2022-08-05T10:33:01.408Z,56.40
2022-08-05T10:34:16.944Z,34.38
2022-08-05T10:36:44.261Z,49.63
2022-08-05T10:39:59.089Z,48.42
2022-08-05T10:42:32.274Z,38.53
2022-08-05T10:45:02.077Z,29.35
2022-08-05T10:48:30.176Z,27.92
2022-08-05T10:51:03.283Z,30.40
2022-08-05T10:53:58.549Z,30.08
2022-08-05T10:56:49.406Z,21.45
2022-08-05T11:00:03.709Z,28.30
2022-08-05T11:02:38.125Z,33.67
2022-08-05T11:05:06.294Z,28.40
2022-08-05T11:08:03.127Z,34.10
2022-08-05T11:10:27.753Z,40.85
2022-08-05T11:12:58.160Z,27.48
2022-08-05T11:15:59.546Z,32.72
2022-08-05T11:18:34.325Z,35.53
2022-08-05T11:21:06.308Z,46.65
2022-08-05T11:24:05.660Z,56.63
2022-08-05T11:26:43.468Z,48.70
2022-08-05T11:29:35.875Z,47.33
2022-08-05T11:32:25.293Z,61.28
2022-08-05T11:34:54.346Z,56.63
2022-08-05T11:38:30.794Z,44.42
2022-08-05T11:41:14.060Z,69.90
2022-08-05T11:44:05.742Z,58.67
2022-08-05T11:47:09.880Z,39.00
2022-08-05T11:49:39.771Z,36.60
2022-08-05T11:52:11.839Z,43.83
2022-08-05T11:54:41.366Z,36.83
2022-08-05T11:57:24.427Z,43.13
2022-08-05T11:59:55.843Z,51.27
2022-08-05T12:02:33.266Z,37.28
2022-08-05T12:05:07.263Z,56.72
2022-08-05T12:08:07.981Z,33.13
2022-08-05T12:10:38.630Z,48.47
2022-08-05T12:13:18.669Z,50.38
2022-08-05T12:15:56.144Z,44.30
2022-08-05T12:18:38.823Z,49.60
2022-08-05T12:21:18.707Z,50.72
2022-08-05T12:23:54.320Z,56.03
2022-08-05T12:26:21.718Z,62.78
2022-08-05T12:28:51.067Z,50.20
2022-08-05T12:31:23.674Z,37.20
2022-08-05T12:34:09.090Z,42.67
2022-08-05T12:36:43.013Z,55.28
2022-08-05T12:39:10.720Z,44.60
2022-08-05T12:41:43.820Z,52.43
2022-08-05T12:44:32.600Z,78.25
2022-08-05T12:47:01.801Z,80.70
2022-08-05T12:50:04.221Z,50.85
2022-08-05T12:52:32.388Z,66.97
2022-08-05T12:55:26.663Z,49.13
2022-08-05T12:58:48.441Z,97.07
2022-08-05T13:02:00.555Z,351.92
2022-08-05T13:03:41.431Z,375.52
2022-08-05T13:06:17.076Z,2.20
2022-08-05T13:08:51.791Z,0.30
2022-08-05T13:12:01.285Z,0.57
2022-08-05T13:14:24.835Z,86.10
2022-08-05T13:17:08.219Z,90.57
2022-08-05T13:19:51.759Z,92.78
2022-08-05T13:22:29.215Z,63.50
2022-08-05T13:25:05.637Z,69.82
2022-08-05T13:27:39.229Z,1.17
2022-08-05T13:30:34.390Z,1.05
2022-08-05T13:33:01.606Z,1.47
2022-08-05T13:35:42.593Z,17.92
2022-08-05T13:38:28.471Z,52.97
2022-08-05T13:41:00.686Z,24.67
2022-08-05T13:43:44.916Z,39.13
2022-08-05T13:46:16.169Z,19.13
2022-08-05T13:48:57.137Z,0.80
2022-08-05T13:51:36.510Z,0.80
2022-08-05T13:54:12.698Z,2.33
2022-08-05T13:56:45.587Z,3.38
2022-08-05T13:59:23.812Z,12.20
2022-08-05T14:02:00.045Z,4.55
2022-08-05T14:04:49.637Z,4.82
2022-08-05T14:07:59.945Z,10.95
2022-08-05T14:10:19.207Z,4.22
2022-08-05T14:12:55.859Z,15.80
2022-08-05T14:16:04.817Z,6.38
2022-08-05T14:18:13.137Z,2.90
2022-08-05T14:20:42.852Z,3.67
2022-08-05T14:23:19.218Z,1.20
2022-08-05T14:25:54.613Z,0.50
2022-08-05T14:28:27.738Z,0.88
2022-08-05T14:30:58.856Z,0.98
2022-08-05T14:33:25.913Z,1.20
2022-08-05T14:35:54.337Z,1.42
2022-08-05T14:38:27.773Z,2.78
2022-08-05T14:40:59.901Z,3.67
2022-08-05T14:43:57.733Z,7.25
2022-08-05T14:46:13.980Z,13.40
2022-08-05T14:48:41.478Z,29.50
2022-08-05T14:51:09.386Z,45.58
2022-08-05T14:53:44.587Z,109.20
2022-08-05T14:56:12.185Z,120.05
2022-08-05T14:58:47.827Z,136.45
2022-08-05T15:01:47.274Z,135.75
2022-08-05T15:04:09.983Z,86.75
2022-08-05T15:06:40.444Z,109.72
2022-08-05T15:09:07.708Z,167.75
2022-08-05T15:11:52.424Z,169.93
2022-08-05T15:14:35.017Z,143.48
2022-08-05T15:17:09.839Z,139.77
2022-08-05T15:19:48.825Z,175.93
2022-08-05T15:22:16.031Z,121.38
2022-08-05T15:24:44.149Z,162.68
2022-08-05T15:27:11.602Z,159.57
2022-08-05T15:29:41.937Z,213.45
2022-08-05T15:32:09.103Z,133.32
2022-08-05T15:34:35.887Z,189.45
2022-08-05T15:37:06.919Z,156.60
2022-08-05T15:40:59.022Z,209.77
2022-08-05T15:42:54.029Z,161.63
2022-08-05T15:45:15.515Z,171.57
2022-08-05T15:47:44.071Z,234.23
2022-08-05T15:50:15.157Z,183.57
2022-08-05T15:52:53.847Z,156.57
2022-08-05T15:55:24.665Z,111.05
2022-08-05T15:58:16.457Z,168.18
2022-08-05T16:01:03.466Z,89.75
2022-08-05T16:03:32.755Z,166.40
2022-08-05T16:06:01.013Z,185.90
2022-08-05T16:08:30.782Z,154.63
2022-08-05T16:10:58.624Z,124.13
2022-08-05T16:13:32.095Z,133.38
2022-08-05T16:16:02.061Z,132.63
2022-08-05T16:18:32.863Z,134.48
2022-08-05T16:21:04.599Z,156.05
2022-08-05T16:23:33.004Z,159.57
2022-08-05T16:26:20.101Z,123.63
2022-08-05T16:28:54.481Z,146.23
2022-08-05T16:31:21.717Z,167.00
2022-08-05T16:33:49.057Z,161.65
2022-08-05T16:36:20.248Z,145.82
2022-08-05T16:38:54.751Z,171.55
2022-08-05T16:42:15.302Z,181.18
2022-08-05T16:44:11.804Z,150.52
2022-08-05T16:46:41.091Z,174.50
2022-08-05T16:49:10.127Z,168.98
2022-08-05T16:51:42.745Z,176.63
2022-08-05T16:54:25.790Z,157.70
2022-08-05T16:56:54.436Z,139.47
2022-08-05T16:59:21.765Z,155.93
2022-08-05T17:01:53.744Z,164.60
2022-08-05T17:04:27.345Z,170.13
2022-08-05T17:07:00.132Z,145.20
2022-08-05T17:09:29.590Z,185.45
2022-08-05T17:11:59.647Z,169.07
2022-08-05T17:14:37.632Z,154.23
2022-08-05T17:17:09.355Z,158.17
2022-08-05T17:19:43.735Z,210.27
2022-08-05T17:22:24.832Z,219.90
2022-08-05T17:24:57.553Z,209.05
2022-08-05T17:27:33.575Z,228.43
2022-08-05T17:30:02.405Z,259.73
2022-08-05T17:32:30.151Z,232.48
2022-08-05T17:34:59.201Z,237.25
2022-08-05T17:37:40.340Z,220.93
2022-08-05T17:40:12.182Z,212.68
2022-08-05T17:42:49.640Z,178.37
2022-08-05T17:45:24.713Z,195.02
2022-08-05T17:47:55.746Z,189.13
2022-08-05T17:50:30.489Z,208.73
2022-08-05T17:53:00.266Z,218.77
2022-08-05T17:55:37.376Z,269.88
2022-08-05T17:58:09.357Z,276.83
2022-08-05T18:00:36.972Z,313.77
2022-08-05T18:03:11.946Z,283.38
2022-08-05T18:05:53.466Z,267.00
2022-08-05T18:08:21.180Z,327.77
2022-08-05T18:10:48.004Z,628.05
2022-08-05T18:13:15.446Z,254.60
2022-08-05T18:15:42.743Z,356.27
2022-08-05T18:18:11.617Z,284.27
2022-08-05T18:20:38.807Z,299.58
2022-08-05T18:23:11.299Z,843.00
2022-08-05T18:25:44.817Z,274.50
2022-08-05T18:28:16.544Z,248.73
2022-08-05T18:30:47.477Z,280.13
2022-08-05T18:33:22.573Z,493.77
2022-08-05T18:36:03.868Z,284.90
2022-08-05T18:38:35.053Z,387.00
2022-08-05T18:41:55.882Z,232.93
2022-08-05T18:43:50.371Z,232.77
2022-08-05T18:46:20.125Z,313.73
2022-08-05T18:48:51.956Z,268.90
2022-08-05T18:52:05.107Z,282.05
2022-08-05T18:54:28.338Z,294.40
2022-08-05T18:56:59.921Z,294.05
2022-08-05T18:59:43.238Z,341.00
2022-08-05T19:02:26.898Z,333.02
2022-08-05T19:05:02.499Z,353.30
2022-08-05T19:07:46.110Z,338.95
2022-08-05T19:10:14.944Z,491.93
2022-08-05T19:12:43.091Z,422.25
2022-08-05T19:15:58.229Z,192.20
2022-08-05T19:18:08.094Z,166.95
2022-08-05T19:20:41.306Z,208.38
2022-08-05T19:23:22.764Z,259.60
2022-08-05T19:26:02.054Z,275.25
2022-08-05T19:28:33.611Z,200.68
2022-08-05T19:31:01.057Z,227.52
2022-08-05T19:33:35.514Z,173.35
2022-08-05T19:36:06.525Z,226.55
2022-08-05T19:38:35.650Z,230.70
2022-08-05T19:41:07.288Z,238.73
2022-08-05T19:44:06.955Z,235.97
2022-08-05T19:46:29.568Z,243.13
2022-08-05T19:49:03.209Z,262.35
2022-08-05T19:52:04.551Z,279.50
2022-08-05T19:54:28.448Z,267.45
2022-08-05T19:57:02.271Z,229.32
2022-08-05T19:59:56.319Z,206.02
2022-08-05T20:02:17.854Z,250.85
2022-08-05T20:04:46.056Z,238.80
2022-08-05T20:07:14.065Z,249.02
2022-08-05T20:09:55.050Z,244.80
2022-08-05T20:12:24.937Z,243.60
2022-08-05T20:14:53.129Z,279.00
2022-08-05T20:17:23.593Z,283.85
2022-08-05T20:19:56.801Z,317.08
2022-08-05T20:22:27.085Z,343.10
2022-08-05T20:24:55.565Z,329.10
2022-08-05T20:27:26.506Z,381.73
2022-08-05T20:29:57.616Z,310.98
2022-08-05T20:32:27.453Z,334.13
2022-08-05T20:34:54.903Z,289.85
2022-08-05T20:38:06.557Z,311.07
2022-08-05T20:40:09.712Z,367.75
2022-08-05T20:42:36.667Z,211.77
2022-08-05T20:45:05.243Z,205.40
2022-08-05T20:47:33.287Z,225.48
2022-08-05T20:50:01.852Z,231.35
2022-08-05T20:52:29.822Z,266.97
2022-08-05T20:55:55.594Z,243.35
2022-08-05T20:57:45.035Z,59.78
2022-08-05T21:00:41.204Z,226.83
2022-08-05T21:03:06.265Z,248.10
2022-08-05T21:05:48.131Z,326.58
2022-08-05T21:08:33.086Z,263.80
2022-08-05T21:11:11.816Z,313.27
2022-08-05T21:13:48.485Z,433.80
2022-08-05T21:16:30.135Z,318.57
2022-08-05T21:18:59.910Z,225.88
2022-08-05T21:21:39.764Z,185.05
2022-08-05T21:24:12.906Z,198.23
2022-08-05T21:26:41.464Z,199.80
2022-08-05T21:29:12.525Z,163.80
2022-08-05T21:31:43.631Z,117.35
2022-08-05T21:34:11.210Z,86.23
2022-08-05T21:36:38.923Z,120.95
2022-08-05T21:39:10.176Z,110.60
2022-08-05T21:41:41.725Z,130.05
2022-08-05T21:44:19.338Z,123.40
2022-08-05T21:46:53.977Z,124.50
2022-08-05T21:50:00.322Z,135.13
2022-08-05T21:52:21.434Z,163.38
2022-08-05T21:54:56.162Z,160.07
2022-08-05T21:57:32.043Z,117.20
2022-08-05T22:00:11.366Z,128.35
2022-08-05T22:02:42.528Z,145.83
2022-08-05T22:05:11.034Z,172.15
2022-08-05T22:07:40.186Z,170.07
2022-08-05T22:10:27.329Z,179.88
2022-08-05T22:12:57.393Z,218.43
2022-08-05T22:16:01.991Z,223.73
2022-08-05T22:18:11.408Z,210.23
2022-08-05T22:20:39.777Z,208.20
2022-08-05T22:24:03.094Z,313.67
2022-08-05T22:26:31.315Z,999.90
2022-08-05T22:28:58.222Z,127.75
2022-08-05T22:31:25.111Z,24.90
2022-08-05T22:34:01.221Z,3.67
2022-08-05T22:36:28.600Z,42.63
2022-08-05T22:38:56.669Z,26.67
2022-08-05T22:42:04.446Z,57.63
2022-08-05T22:44:11.900Z,2.58
2022-08-05T22:46:40.669Z,88.13
2022-08-05T22:50:17.275Z,48.28
2022-08-05T22:52:05.161Z,0.60
2022-08-05T22:54:33.783Z,0.65
2022-08-05T22:57:00.556Z,0.60
2022-08-05T22:59:45.895Z,0.75
2022-08-05T23:02:14.148Z,0.57
2022-08-05T23:04:51.567Z,0.55
2022-08-05T23:07:22.156Z,1.30
2022-08-05T23:09:57.555Z,2.63
2022-08-05T23:12:32.797Z,43.85
2022-08-05T23:15:09.277Z,0.65
2022-08-05T23:17:59.587Z,75.53
2022-08-05T23:20:24.556Z,12.07
2022-08-05T23:22:55.590Z,0.50
2022-08-05T23:25:54.734Z,0.60
2022-08-05T23:28:11.091Z,22.60
2022-08-05T23:30:39.991Z,7.20
2022-08-05T23:33:15.971Z,1.17
2022-08-05T23:35:45.812Z,1.35
2022-08-05T23:38:12.605Z,15.10
2022-08-05T23:40:42.362Z,23.63
2022-08-05T23:43:24.965Z,16.60
2022-08-05T23:46:03.185Z,8.65
2022-08-05T23:48:30.029Z,2.55
2022-08-05T23:50:56.907Z,1.50
2022-08-05T23:53:28.531Z,15.68
2022-08-05T23:56:12.520Z,9.13
2022-08-05T23:58:46.939Z,6.93
